Weather reports worldwide

Advertisment
Dunstaffnage, United Kingdom (99006): temperature & dewpoint: 21.02.2020 14:00:00 - 27.02.2020 14:00:00 (GMT)Dunstaffnage, United Kingdom (99006): temperature -20cm: 21.02.2020 14:00:00 - 27.02.2020 14:00:00 (GMT)Dunstaffnage, United Kingdom (99006): wind speed & gusts: 21.02.2020 14:00:00 - 27.02.2020 14:00:00 (GMT)Dunstaffnage, United Kingdom (99006): wind direction: 21.02.2020 14:00:00 - 27.02.2020 14:00:00 (GMT)Dunstaffnage, United Kingdom (99006): precipitation: 21.02.2020 14:00:00 - 27.02.2020 14:00:00 (GMT)
Date & Time tt [°C] td [°C] tt -20cm [°C] ff [km/h] ff [kn] fx [km/h] fx [kn] dd rr [mm]
27.02.2020 14:00:00 3,6 0,1 - 41 22 63 34 WNW 0,0
27.02.2020 13:00:00 4,1 0,9 - 18 10 61 33 W -
27.02.2020 12:00:00 3,8 1,5 - 28 15 - - W 0,4
27.02.2020 11:00:00 4,6 0,8 - 22 12 - - W 0,0
27.02.2020 10:00:00 3,8 1,3 - 4 2 - - SSW 0,0
27.02.2020 09:00:00 3,6 1,1 3,7 21 11 - - W 0,0
27.02.2020 08:00:00 1,7 0,3 - 11 6 - - WSW 0,4
27.02.2020 07:00:00 2,6 0,1 - 22 12 - - W 0,0
27.02.2020 06:00:00 1,7 0,4 - 16 9 - - W 0,2
27.02.2020 05:00:00 2,0 -0,2 - 13 7 - - W 0,2
27.02.2020 04:00:00 1,1 0,1 - 13 7 - - SW 0,2
27.02.2020 03:00:00 1,2 -0,2 - 4 2 - - SW 0,0
27.02.2020 02:00:00 1,4 0,5 - 4 2 - - SW 0,0
27.02.2020 01:00:00 1,7 0,6 - 9 5 - - SW 0,2
27.02.2020 00:00:00 2,2 1,1 - 13 7 - - W 0,2
26.02.2020 23:00:00 1,5 0,4 - 4 2 - - S 0,0
26.02.2020 22:00:00 1,7 0,4 - 13 7 - - SW 0,6
26.02.2020 21:00:00 2,1 0,9 - 11 6 - - SSW 0,0
26.02.2020 20:00:00 2,6 1,2 - 18 10 - - W 0,2
26.02.2020 19:00:00 1,9 1,1 - 5 3 - - ESE 0,2
26.02.2020 18:00:00 2,0 0,9 - 5 3 - - W 1,2
26.02.2020 17:00:00 3,7 1,1 - 15 8 - - SW 0,0
26.02.2020 16:00:00 4,3 0,1 - 18 10 - - WSW 0,0
26.02.2020 15:00:00 3,7 1,1 - 16 9 54 29 WSW 0,2
26.02.2020 14:00:00 4,2 -0,2 - 22 12 - - W 0,0
26.02.2020 13:00:00 5,8 -0,7 - 26 14 - - W 0,0
26.02.2020 12:00:00 4,1 0,0 - 26 14 48 26 WSW 0,0
26.02.2020 11:00:00 5,0 0,5 - 15 8 - - W 0,0
26.02.2020 10:00:00 2,9 1,7 - 8 4 - - SSW 0,2
26.02.2020 09:00:00 3,2 0,5 4,0 13 7 - - W 0,0
26.02.2020 08:00:00 2,9 0,3 - 16 9 59 32 WNW 0,6
26.02.2020 07:00:00 2,0 0,9 - 35 19 50 27 W 0,6
26.02.2020 06:00:00 2,8 1,8 - 9 5 - - WSW 0,6
26.02.2020 05:00:00 2,8 1,8 - 13 7 - - W 0,8
26.02.2020 04:00:00 1,2 0,3 - 5 3 - - SW 0,0
26.02.2020 03:00:00 1,8 0,3 - 8 4 - - SW 0,0
26.02.2020 02:00:00 2,8 0,7 - 9 5 - - WNW 0,0
26.02.2020 01:00:00 3,2 1,2 - 9 5 - - W 0,0
26.02.2020 00:00:00 3,2 1,6 - 8 4 - - W 0,0
25.02.2020 23:00:00 3,0 1,3 - 11 6 - - W 0,0
25.02.2020 22:00:00 2,6 1,5 - 4 2 - - W 0,0
25.02.2020 21:00:00 2,5 1,6 - 5 3 - - WSW 0,0
25.02.2020 20:00:00 1,9 0,9 - 5 3 - - SSW 0,0
25.02.2020 19:00:00 2,5 1,3 - 8 4 - - SW 0,0
25.02.2020 18:00:00 2,6 1,3 - 5 3 - - SSW 0,0
25.02.2020 17:00:00 3,5 1,3 - 5 3 - - SW 0,2
25.02.2020 16:00:00 4,4 2,3 - 16 9 - - SW 0,0
25.02.2020 15:00:00 4,4 2,8 - 13 7 - - SSW 0,0
25.02.2020 14:00:00 3,8 2,5 - 9 5 - - SW 0,6
25.02.2020 13:00:00 7,0 4,7 - 8 4 - - SSW 0,0
25.02.2020 12:00:00 5,3 2,8 - 8 4 - - SSW 0,0
25.02.2020 11:00:00 3,6 1,9 - 9 5 - - SSW 0,0
25.02.2020 10:00:00 2,7 2,1 - 8 4 - - SSE 0,6
25.02.2020 09:00:00 2,0 1,4 4,2 8 4 - - SSE 0,4
25.02.2020 08:00:00 1,6 0,7 - 5 3 - - S 2,0
25.02.2020 07:00:00 2,3 1,5 - 11 6 - - SSE 0,0
25.02.2020 06:00:00 2,0 1,3 - 2 1 - - SW 0,0
25.02.2020 05:00:00 2,4 1,9 - 5 3 - - SW 0,4
25.02.2020 04:00:00 1,7 1,1 - 5 3 - - ESE 0,0
25.02.2020 03:00:00 1,9 1,1 - 8 4 - - E 0,0
25.02.2020 02:00:00 2,0 1,1 - 2 1 - - SE 0,4
25.02.2020 01:00:00 2,6 1,7 - 4 2 - - SW 0,4
25.02.2020 00:00:00 2,6 1,4 - 5 3 - - S 0,0
24.02.2020 23:00:00 3,3 1,9 - 5 3 - - WSW 0,0
24.02.2020 22:00:00 3,1 1,5 - 8 4 - - WSW 0,0
24.02.2020 21:00:00 3,3 1,1 - 9 5 - - W 0,0
24.02.2020 20:00:00 3,4 1,8 - 9 5 - - W 0,0
24.02.2020 19:00:00 3,4 2,0 - 18 10 - - W 0,0
24.02.2020 18:00:00 3,7 1,5 - 13 7 - - WNW 0,0
24.02.2020 17:00:00 3,5 2,2 - 5 3 - - W 0,0
24.02.2020 16:00:00 3,7 1,8 - 5 3 - - NNW 0,2
24.02.2020 15:00:00 3,6 1,7 - 2 1 - - WNW 0,2
24.02.2020 14:00:00 3,8 1,1 - 11 6 - - NE 0,0
24.02.2020 13:00:00 4,3 1,1 - 18 10 - - E 0,0
24.02.2020 12:00:00 4,1 1,1 - 26 14 - - ENE 0,2
24.02.2020 11:00:00 3,8 1,2 - 24 13 - - E 0,2
24.02.2020 10:00:00 3,6 1,5 - 21 11 - - ENE 0,2
24.02.2020 09:00:00 3,7 1,4 4,2 16 9 - - E 0,2
24.02.2020 08:00:00 3,2 1,5 - 18 10 - - E 0,2
24.02.2020 07:00:00 3,2 2,0 - 11 6 - - E 0,4
24.02.2020 06:00:00 3,2 1,9 - 11 6 - - E 0,2
24.02.2020 05:00:00 3,2 2,1 - 13 7 - - E 0,2
24.02.2020 04:00:00 3,3 1,8 - 13 7 - - E 0,2
24.02.2020 03:00:00 3,1 1,5 - 13 7 - - E 0,0
24.02.2020 02:00:00 2,7 1,5 - 11 6 - - E 0,0
24.02.2020 01:00:00 2,5 1,5 - 11 6 - - E 0,0
24.02.2020 00:00:00 2,5 1,6 - 11 6 - - E 0,0
23.02.2020 23:00:00 2,7 1,9 - 13 7 - - ESE 0,0
23.02.2020 22:00:00 2,1 1,3 - 4 2 - - E 0,0
23.02.2020 21:00:00 3,0 1,9 - 9 5 - - SE 0,0
23.02.2020 20:00:00 3,6 2,2 - 4 2 - - SW 0,0
23.02.2020 19:00:00 3,5 1,6 - 4 2 - - W 0,0
23.02.2020 18:00:00 3,6 1,7 - 5 3 - - S 0,0
23.02.2020 17:00:00 6,1 3,5 - 5 3 - - SSW 0,4
23.02.2020 16:00:00 7,0 3,8 - 15 8 - - W 0,0
23.02.2020 15:00:00 7,2 3,1 - 18 10 48 26 WSW 0,0
23.02.2020 14:00:00 6,2 2,7 - 26 14 59 32 W 0,2
23.02.2020 13:00:00 7,1 2,0 - 34 18 54 29 W 0,0
23.02.2020 12:00:00 5,2 1,8 - 42 23 63 34 W 0,0
23.02.2020 11:00:00 4,6 1,4 - 26 14 50 27 W 0,0
23.02.2020 10:00:00 3,3 1,0 - 31 17 57 31 W 0,2
23.02.2020 09:00:00 4,2 0,6 4,7 31 17 78 42 W 0,0
23.02.2020 08:00:00 5,0 -0,7 - 34 18 46 25 W 0,0
23.02.2020 07:00:00 3,4 1,5 - 26 14 55 30 W 0,4
23.02.2020 06:00:00 4,5 1,1 - 22 12 - - W 0,2
23.02.2020 05:00:00 3,4 1,8 - 16 9 - - W 0,8
23.02.2020 04:00:00 4,9 0,8 - 18 10 - - W 0,0
23.02.2020 03:00:00 4,4 1,3 - 11 6 - - W 0,0
23.02.2020 02:00:00 4,6 0,5 - 18 10 48 26 WSW 0,0
23.02.2020 01:00:00 5,6 -0,5 - 26 14 48 26 WSW 0,0
23.02.2020 00:00:00 4,9 0,2 - 21 11 50 27 WSW 0,0
22.02.2020 23:00:00 4,8 0,5 - 31 17 50 27 WSW 0,0
22.02.2020 22:00:00 4,4 0,3 - 28 15 68 37 WSW 0,2
22.02.2020 21:00:00 5,0 0,8 - 34 18 70 38 WSW 0,4
22.02.2020 20:00:00 4,8 -1,1 - 41 22 70 38 W 1,2
22.02.2020 19:00:00 4,4 0,0 - 31 17 80 43 WSW 0,2
22.02.2020 18:00:00 5,6 -1,5 - 44 24 70 38 W 0,0
22.02.2020 17:00:00 4,0 1,2 - 37 20 74 40 W 0,8
22.02.2020 16:00:00 4,4 0,7 - 42 23 87 47 WSW 1,2
22.02.2020 15:00:00 4,1 0,8 - 46 25 91 49 W 0,8
22.02.2020 14:00:00 5,2 0,6 - 48 26 80 43 WSW 0,0
22.02.2020 13:00:00 5,3 0,7 - 39 21 89 48 WSW 0,6
22.02.2020 12:00:00 4,7 -0,7 - 46 25 70 38 WSW 0,4
22.02.2020 11:00:00 3,2 0,4 - 39 21 65 35 W 0,8
22.02.2020 10:00:00 5,2 0,2 - 42 23 80 43 WSW 0,2
22.02.2020 09:00:00 4,7 0,1 5,7 44 24 70 38 WSW 0,2
22.02.2020 08:00:00 2,6 1,2 - 50 27 74 40 W 1,0
22.02.2020 07:00:00 3,1 1,0 - 54 29 85 46 W 1,0
22.02.2020 06:00:00 4,8 1,4 - 28 15 70 38 WSW 0,0
22.02.2020 05:00:00 4,7 0,4 - 39 21 76 41 WSW 1,2
22.02.2020 04:00:00 6,1 1,3 - 37 20 68 37 WSW 0,0
22.02.2020 03:00:00 6,2 2,8 - 35 19 74 40 WSW 0,0
22.02.2020 02:00:00 5,9 2,8 - 55 30 81 44 WSW 0,2
22.02.2020 01:00:00 7,3 3,6 - 44 24 76 41 WSW 0,0
22.02.2020 00:00:00 8,0 6,1 - 46 25 87 47 WSW 4,2
21.02.2020 23:00:00 8,4 7,2 - 35 19 63 34 SW 1,2
21.02.2020 22:00:00 9,1 7,0 - 29 16 57 31 SW 0,0
21.02.2020 21:00:00 9,0 7,0 - 31 17 55 30 WSW 0,0
21.02.2020 20:00:00 8,7 7,2 - 28 15 54 29 SW 0,0
21.02.2020 19:00:00 8,9 7,6 - 28 15 48 26 SW 0,0
21.02.2020 18:00:00 9,0 7,1 - 26 14 50 27 SW 0,0
21.02.2020 17:00:00 9,2 7,3 - 26 14 46 25 WSW 0,0
21.02.2020 16:00:00 9,2 7,7 - 28 15 54 29 SW 0,0
21.02.2020 15:00:00 9,4 8,6 - 34 18 67 36 WSW 0,6
21.02.2020 14:00:00 9,6 8,8 - 37 20 68 37 WSW 0,6

tt = temperature
td = dewpoint
tt -20cm = temperature -20cm
ff = wind speed
fx = gusts
dd = wind direction
rr = precipitation

Next stations